Central Virginia Flyers


Central Virginia Flyers is a 10 member flying club based in Richmond, VA at Hanover County Airport (KOFP). We own N787AT, a 1977 Cessna 172 with 180hp conversion. If you are interested in membership, please contact Brenton at [email protected]


Aviation Digital Data Service (ADDS)

Output produced by METARs form (1645 UTC 25 May 2016)
found at http://aviationweather.gov/adds/metars/
 
KOFP 251554Z AUTO VRB03KT 10SM CLR 28/11 A3019 RMK AO2 SLP222 T02780111
KRIC 251554Z 23006KT 10SM FEW065 OVC300 28/10 A3018 RMK AO2 SLP223 T02780100
KRIC 251120Z 2512/2612 27006KT P6SM SCT060 
     FM252000 24005KT P6SM SKC 
     FM252300 20004KT P6SM SKC